Weather at Ellison Onizuka Kona International Airport at Keahole

Public forecast

Using degrees Fahrenheit for public forecast. Weather courtesy of forecast.io.

Current aviation weather report (METAR) for Ellison Onizuka Kona International Airport at Keahole

Retrieved 2020/09/29 22:53 UTC (45 minutes ago):

PHKO 292253Z 35019G25KT 10SM SCT050 32/21 A2987

Aviation forecast (TAF) for Ellison Onizuka Kona International Airport at Keahole

Retrieved 2020/09/29 18:33 UTC (5 hours ago):

TAF PHKO 291730Z 2918/3018 05008KT P6SM SKC FM292100 25012KT P6SM SCT050 FM300500 13010KT P6SM BKN050